createdAt,value
2017-12-20T00:02:17.108Z,18.70
2017-12-20T00:04:43.317Z,18.77
2017-12-20T00:07:09.570Z,16.77
2017-12-20T00:09:35.792Z,18.70
2017-12-20T00:12:01.994Z,18.30
2017-12-20T00:14:28.222Z,18.15
2017-12-20T00:16:54.441Z,19.55
2017-12-20T00:19:20.678Z,18.50
2017-12-20T00:21:46.916Z,17.37
2017-12-20T00:24:13.128Z,19.10
2017-12-20T00:26:39.331Z,18.55
2017-12-20T00:29:05.557Z,18.40
2017-12-20T00:31:31.770Z,17.10
2017-12-20T00:33:57.982Z,17.85
2017-12-20T00:36:24.607Z,18.30
2017-12-20T00:38:50.803Z,17.37
2017-12-20T00:41:17.002Z,18.95
2017-12-20T00:43:43.190Z,17.75
2017-12-20T00:46:09.450Z,18.55
2017-12-20T00:48:35.666Z,16.65
2017-12-20T00:51:01.865Z,15.90
2017-12-20T00:53:28.629Z,17.12
2017-12-20T00:55:54.856Z,17.80
2017-12-20T00:58:21.060Z,16.67
2017-12-20T01:00:47.264Z,18.02
2017-12-20T01:03:13.493Z,22.90
2017-12-20T01:05:39.753Z,24.30
2017-12-20T01:08:06.376Z,21.05
2017-12-20T01:10:32.591Z,19.50
2017-12-20T01:12:59.067Z,19.08
2017-12-20T01:15:25.665Z,20.00
2017-12-20T01:17:51.854Z,18.12
2017-12-20T01:20:18.087Z,17.90
2017-12-20T01:22:44.334Z,17.77
2017-12-20T01:25:10.561Z,18.90
2017-12-20T01:27:37.424Z,18.00
2017-12-20T01:30:03.635Z,16.98
2017-12-20T01:32:29.879Z,16.75
2017-12-20T01:34:56.133Z,17.42
2017-12-20T01:37:22.734Z,17.52
2017-12-20T01:39:48.983Z,18.35
2017-12-20T01:42:15.249Z,17.90
2017-12-20T01:44:41.464Z,17.55
2017-12-20T01:47:08.055Z,18.42
2017-12-20T01:49:34.271Z,18.12
2017-12-20T01:52:00.515Z,18.33
2017-12-20T01:54:26.749Z,15.48
2017-12-20T01:56:52.984Z,16.62
2017-12-20T01:59:19.212Z,18.00
2017-12-20T02:01:45.413Z,16.75
2017-12-20T02:04:11.621Z,17.25
2017-12-20T02:06:37.840Z,18.70
2017-12-20T02:09:04.052Z,17.30
2017-12-20T02:11:30.325Z,17.48
2017-12-20T02:13:56.547Z,18.30
2017-12-20T02:16:23.044Z,17.80
2017-12-20T02:18:49.654Z,17.67
2017-12-20T02:21:15.900Z,17.00
2017-12-20T02:23:42.160Z,16.42
2017-12-20T02:26:08.408Z,16.87
2017-12-20T02:28:34.673Z,16.40
2017-12-20T02:31:00.913Z,17.62
2017-12-20T02:33:36.746Z,16.90
2017-12-20T02:36:02.993Z,17.87
2017-12-20T02:38:38.653Z,16.92
2017-12-20T02:41:07.593Z,16.67
2017-12-20T02:43:33.831Z,18.27
2017-12-20T02:46:01.319Z,16.17
2017-12-20T02:48:27.913Z,16.67
2017-12-20T02:50:54.154Z,15.95
2017-12-20T02:53:20.419Z,16.02
2017-12-20T02:55:47.668Z,16.33
2017-12-20T02:58:13.904Z,16.30
2017-12-20T03:00:40.535Z,15.65
2017-12-20T03:03:07.147Z,15.95
2017-12-20T03:05:33.514Z,14.95
2017-12-20T03:07:59.832Z,15.77
2017-12-20T03:10:26.055Z,14.57
2017-12-20T03:12:52.336Z,14.32
2017-12-20T03:15:18.577Z,14.60
2017-12-20T03:17:44.812Z,16.05
2017-12-20T03:20:11.062Z,16.17
2017-12-20T03:22:37.318Z,15.70
2017-12-20T03:25:03.868Z,14.93
2017-12-20T03:27:30.095Z,15.18
2017-12-20T03:29:56.319Z,14.15
2017-12-20T03:32:22.557Z,14.27
2017-12-20T03:34:48.788Z,14.45
2017-12-20T03:37:15.075Z,14.55
2017-12-20T03:39:41.297Z,13.90
2017-12-20T03:42:07.552Z,14.68
2017-12-20T03:44:33.774Z,13.60
2017-12-20T03:47:00.039Z,15.40
2017-12-20T03:49:26.266Z,14.70
2017-12-20T03:51:52.496Z,14.35
2017-12-20T03:54:18.786Z,14.73
2017-12-20T03:56:45.035Z,12.65
2017-12-20T03:59:11.266Z,13.50
2017-12-20T04:01:37.484Z,13.98
2017-12-20T04:04:03.730Z,14.73
2017-12-20T04:06:29.979Z,13.65
2017-12-20T04:08:56.190Z,13.27
2017-12-20T04:11:22.434Z,12.07
2017-12-20T04:13:48.657Z,12.57
2017-12-20T04:16:14.885Z,13.62
2017-12-20T04:18:41.158Z,13.68
2017-12-20T04:21:07.380Z,13.57
2017-12-20T04:23:33.658Z,13.70
2017-12-20T04:25:59.905Z,11.70
2017-12-20T04:28:26.122Z,11.40
2017-12-20T04:30:52.408Z,12.88
2017-12-20T04:33:18.621Z,11.55
2017-12-20T04:35:44.820Z,11.48
2017-12-20T04:38:11.059Z,10.85
2017-12-20T04:40:38.252Z,11.65
2017-12-20T04:43:04.484Z,12.68
2017-12-20T04:45:30.698Z,10.85
2017-12-20T04:47:57.304Z,10.30
2017-12-20T04:50:23.536Z,10.55
2017-12-20T04:52:49.760Z,10.75
2017-12-20T04:55:15.960Z,10.43
2017-12-20T04:57:42.196Z,10.38
2017-12-20T05:00:08.443Z,10.45
2017-12-20T05:02:34.673Z,10.75
2017-12-20T05:05:00.905Z,11.90
2017-12-20T05:07:28.050Z,9.93
2017-12-20T05:09:54.271Z,9.23
2017-12-20T05:12:20.507Z,10.90
2017-12-20T05:14:46.762Z,9.35
2017-12-20T05:17:13.343Z,11.85
2017-12-20T05:19:39.526Z,10.85
2017-12-20T05:22:05.774Z,10.45
2017-12-20T05:24:31.960Z,11.07
2017-12-20T05:26:58.203Z,11.05
2017-12-20T05:29:24.448Z,11.52
2017-12-20T05:31:50.692Z,10.43
2017-12-20T05:34:16.926Z,10.25
2017-12-20T05:36:43.177Z,10.88
2017-12-20T05:39:09.414Z,10.45
2017-12-20T05:41:35.637Z,11.05
2017-12-20T05:44:01.884Z,11.20
2017-12-20T05:46:28.088Z,11.12
2017-12-20T05:48:54.341Z,11.80
2017-12-20T05:51:20.556Z,11.50
2017-12-20T05:53:46.799Z,12.30
2017-12-20T05:56:13.074Z,10.55
2017-12-20T05:58:39.299Z,12.07
2017-12-20T06:01:05.530Z,11.57
2017-12-20T06:03:31.809Z,12.15
2017-12-20T06:05:58.014Z,10.85
2017-12-20T06:08:24.246Z,11.02
2017-12-20T06:10:51.441Z,10.25
2017-12-20T06:13:17.720Z,11.48
2017-12-20T06:15:44.013Z,11.68
2017-12-20T06:18:11.120Z,11.82
2017-12-20T06:20:37.311Z,9.45
2017-12-20T06:23:03.551Z,10.57
2017-12-20T06:25:29.781Z,10.38
2017-12-20T06:27:56.077Z,10.57
2017-12-20T06:30:22.313Z,12.18
2017-12-20T06:32:48.523Z,11.82
2017-12-20T06:35:14.750Z,11.40
2017-12-20T06:37:40.978Z,11.73
2017-12-20T06:40:07.214Z,11.32
2017-12-20T06:42:33.461Z,10.45
2017-12-20T06:45:00.250Z,11.60
2017-12-20T06:47:26.878Z,10.35
2017-12-20T06:49:53.190Z,11.35
2017-12-20T06:52:19.447Z,12.57
2017-12-20T06:54:45.746Z,15.75
2017-12-20T06:57:11.999Z,14.68
2017-12-20T06:59:38.247Z,15.07
2017-12-20T07:02:04.864Z,14.50
2017-12-20T07:04:31.114Z,15.02
2017-12-20T07:06:57.713Z,14.38
2017-12-20T07:09:23.950Z,13.45
2017-12-20T07:11:50.170Z,13.20
2017-12-20T07:14:16.722Z,14.45
2017-12-20T07:16:42.934Z,15.77
2017-12-20T07:19:09.166Z,16.42
2017-12-20T07:21:35.427Z,17.55
2017-12-20T07:24:01.682Z,15.65
2017-12-20T07:26:27.908Z,15.27
2017-12-20T07:28:54.197Z,15.70
2017-12-20T07:31:20.826Z,14.65
2017-12-20T07:33:47.049Z,14.82
2017-12-20T07:36:13.338Z,13.73
2017-12-20T07:38:39.568Z,12.48
2017-12-20T07:41:06.846Z,13.82
2017-12-20T07:43:33.063Z,12.50
2017-12-20T07:45:59.315Z,12.60
2017-12-20T07:48:25.609Z,12.00
2017-12-20T07:50:51.834Z,13.65
2017-12-20T07:53:18.105Z,14.35
2017-12-20T07:55:44.335Z,13.60
2017-12-20T07:58:10.576Z,14.77
2017-12-20T08:00:37.190Z,15.45
2017-12-20T08:03:06.402Z,13.85
2017-12-20T08:05:32.644Z,13.93
2017-12-20T08:07:58.917Z,15.30
2017-12-20T08:10:25.185Z,14.07
2017-12-20T08:12:51.412Z,14.13
2017-12-20T08:15:17.638Z,14.00
2017-12-20T08:17:43.894Z,14.75
2017-12-20T08:20:10.505Z,16.40
2017-12-20T08:22:36.858Z,19.73
2017-12-20T08:25:03.481Z,20.35
2017-12-20T08:27:30.164Z,19.67
2017-12-20T08:29:56.407Z,21.12
2017-12-20T08:32:22.687Z,21.08
2017-12-20T08:34:49.304Z,15.27
2017-12-20T08:37:15.552Z,16.25
2017-12-20T08:39:42.149Z,13.73
2017-12-20T08:42:08.395Z,12.90
2017-12-20T08:44:34.650Z,12.85
2017-12-20T08:47:01.248Z,12.90
2017-12-20T08:49:27.518Z,12.63
2017-12-20T08:51:54.420Z,11.93
2017-12-20T08:54:20.703Z,12.35
2017-12-20T08:56:47.745Z,12.73
2017-12-20T08:59:13.991Z,12.02
2017-12-20T09:01:40.242Z,12.30
2017-12-20T09:04:06.473Z,11.40
2017-12-20T09:06:32.713Z,12.63
2017-12-20T09:08:58.970Z,12.25
2017-12-20T09:11:25.616Z,11.43
2017-12-20T09:13:53.047Z,11.52
2017-12-20T09:16:19.299Z,12.88
2017-12-20T09:18:45.919Z,10.52
2017-12-20T09:21:12.160Z,12.35
2017-12-20T09:23:38.780Z,10.63
2017-12-20T09:26:05.020Z,10.05
2017-12-20T09:28:31.625Z,10.48
2017-12-20T09:30:57.878Z,11.73
2017-12-20T09:33:24.097Z,10.82
2017-12-20T09:35:50.352Z,11.75
2017-12-20T09:38:16.586Z,10.60
2017-12-20T09:40:43.183Z,10.73
2017-12-20T09:43:09.462Z,11.70
2017-12-20T09:45:35.742Z,10.40
2017-12-20T09:48:02.011Z,10.65
2017-12-20T09:50:28.266Z,11.82
2017-12-20T09:52:54.545Z,10.85
2017-12-20T09:55:21.944Z,12.82
2017-12-20T09:57:48.333Z,12.43
2017-12-20T10:00:14.581Z,10.55
2017-12-20T10:02:40.801Z,10.98
2017-12-20T10:05:07.055Z,11.70
2017-12-20T10:07:33.302Z,12.07
2017-12-20T10:09:59.924Z,14.40
2017-12-20T10:12:26.612Z,14.30
2017-12-20T10:14:52.866Z,12.50
2017-12-20T10:17:19.130Z,12.93
2017-12-20T10:19:45.391Z,13.73
2017-12-20T10:22:11.707Z,13.45
2017-12-20T10:24:38.032Z,13.50
2017-12-20T10:27:04.672Z,17.37
2017-12-20T10:29:31.839Z,14.70
2017-12-20T10:31:58.131Z,16.92
2017-12-20T10:34:24.757Z,16.55
2017-12-20T10:36:51.071Z,17.08
2017-12-20T10:39:17.378Z,18.10
2017-12-20T10:41:43.617Z,16.90
2017-12-20T10:44:09.870Z,14.38
2017-12-20T10:46:36.125Z,16.40
2017-12-20T10:49:02.470Z,15.50
2017-12-20T10:51:28.716Z,18.05
2017-12-20T10:53:54.976Z,20.05
2017-12-20T10:56:21.270Z,15.30
2017-12-20T10:58:47.547Z,15.10
2017-12-20T11:01:13.828Z,14.18
2017-12-20T11:03:40.091Z,13.43
2017-12-20T11:06:06.404Z,13.62
2017-12-20T11:08:32.659Z,11.98
2017-12-20T11:10:58.912Z,10.43
2017-12-20T11:13:25.582Z,13.45
2017-12-20T11:15:51.832Z,11.77
2017-12-20T11:18:18.157Z,12.68
2017-12-20T11:20:44.455Z,14.52
2017-12-20T11:23:10.830Z,13.35
2017-12-20T11:25:37.101Z,13.10
2017-12-20T11:28:03.758Z,11.75
2017-12-20T11:30:30.041Z,14.00
2017-12-20T11:32:56.362Z,12.98
2017-12-20T11:35:22.661Z,11.02
2017-12-20T11:37:48.867Z,11.80
2017-12-20T11:40:15.133Z,12.75
2017-12-20T11:42:41.407Z,12.30
2017-12-20T11:45:07.640Z,12.20
2017-12-20T11:47:33.851Z,11.85
2017-12-20T11:50:00.134Z,11.85
2017-12-20T11:52:26.538Z,14.20
2017-12-20T11:54:52.806Z,12.15
2017-12-20T11:57:19.064Z,11.63
2017-12-20T11:59:45.317Z,11.68
2017-12-20T12:02:11.968Z,11.77
2017-12-20T12:04:38.210Z,13.02
2017-12-20T12:07:04.535Z,12.77
2017-12-20T12:09:30.792Z,13.35
2017-12-20T12:11:57.058Z,12.02
2017-12-20T12:14:23.295Z,14.25
2017-12-20T12:16:50.456Z,11.45
2017-12-20T12:19:16.706Z,11.68
2017-12-20T12:21:42.963Z,11.85
2017-12-20T12:24:09.227Z,10.90
2017-12-20T12:26:35.862Z,11.82
2017-12-20T12:29:02.516Z,11.98
2017-12-20T12:31:28.774Z,11.80
2017-12-20T12:33:55.019Z,11.93
2017-12-20T12:36:21.309Z,11.63
2017-12-20T12:38:47.534Z,11.57
2017-12-20T12:41:13.843Z,11.60
2017-12-20T12:43:40.440Z,11.25
2017-12-20T12:46:06.707Z,11.73
2017-12-20T12:48:33.336Z,11.10
2017-12-20T12:51:00.273Z,12.02
2017-12-20T12:53:26.534Z,12.37
2017-12-20T12:55:52.804Z,12.37
2017-12-20T12:58:19.081Z,12.35
2017-12-20T13:00:45.730Z,10.70
2017-12-20T13:03:12.364Z,12.70
2017-12-20T13:05:38.992Z,13.68
2017-12-20T13:08:06.414Z,15.80
2017-12-20T13:10:32.706Z,16.50
2017-12-20T13:12:58.988Z,16.05
2017-12-20T13:15:25.239Z,17.60
2017-12-20T13:17:51.457Z,16.75
2017-12-20T13:20:17.764Z,19.92
2017-12-20T13:22:44.009Z,19.30
2017-12-20T13:25:10.239Z,20.15
2017-12-20T13:27:36.461Z,18.52
2017-12-20T13:30:02.750Z,18.42
2017-12-20T13:32:29.001Z,16.37
2017-12-20T13:34:55.288Z,19.05
2017-12-20T13:37:22.001Z,14.60
2017-12-20T13:39:48.214Z,16.80
2017-12-20T13:42:14.425Z,15.90
2017-12-20T13:44:40.715Z,17.90
2017-12-20T13:47:07.019Z,18.67
2017-12-20T13:49:33.283Z,17.55
2017-12-20T13:51:59.538Z,16.90
2017-12-20T13:54:25.822Z,16.65
2017-12-20T13:56:52.097Z,17.80
2017-12-20T13:59:18.353Z,15.98
2017-12-20T14:01:44.643Z,14.48
2017-12-20T14:04:11.124Z,15.13
2017-12-20T14:06:37.757Z,14.35
2017-12-20T14:09:04.694Z,13.38
2017-12-20T14:11:30.918Z,14.85
2017-12-20T14:13:57.159Z,13.23
2017-12-20T14:16:23.414Z,13.52
2017-12-20T14:18:49.710Z,14.32
2017-12-20T14:21:15.969Z,14.25
2017-12-20T14:23:42.945Z,14.15
2017-12-20T14:26:09.177Z,13.62
2017-12-20T14:28:35.517Z,14.13
2017-12-20T14:31:01.809Z,13.90
2017-12-20T14:33:28.061Z,14.65
2017-12-20T14:35:54.342Z,15.73
2017-12-20T14:38:20.968Z,18.73
2017-12-20T14:40:47.260Z,17.35
2017-12-20T14:43:13.505Z,17.40
2017-12-20T14:45:39.852Z,15.43
2017-12-20T14:48:06.483Z,15.65
2017-12-20T14:50:32.747Z,16.42
2017-12-20T14:53:00.043Z,15.68
2017-12-20T14:55:26.615Z,16.50
2017-12-20T14:57:52.869Z,14.73
2017-12-20T15:00:19.505Z,15.75
2017-12-20T15:02:46.120Z,14.40
2017-12-20T15:05:12.748Z,15.82
2017-12-20T15:07:39.015Z,16.50
2017-12-20T15:10:05.269Z,15.95
2017-12-20T15:12:31.516Z,18.30
2017-12-20T15:14:57.761Z,16.30
2017-12-20T15:17:24.138Z,19.83
2017-12-20T15:19:50.398Z,19.23
2017-12-20T15:22:16.754Z,19.90
2017-12-20T15:24:42.997Z,17.30
2017-12-20T15:27:09.621Z,19.27
2017-12-20T15:29:35.847Z,18.12
2017-12-20T15:32:02.189Z,16.48
2017-12-20T15:34:28.824Z,15.25
2017-12-20T15:36:55.062Z,17.25
2017-12-20T15:39:22.490Z,17.48
2017-12-20T15:41:48.781Z,17.35
2017-12-20T15:44:15.062Z,16.90
2017-12-20T15:46:41.300Z,15.43
2017-12-20T15:49:08.289Z,18.77
2017-12-20T15:51:34.561Z,15.65
2017-12-20T15:54:00.855Z,15.30
2017-12-20T15:56:27.140Z,16.75
2017-12-20T15:58:53.402Z,14.90
2017-12-20T16:01:19.662Z,15.60
2017-12-20T16:03:45.968Z,17.45
2017-12-20T16:06:12.216Z,17.00
2017-12-20T16:08:38.488Z,16.90
2017-12-20T16:11:04.726Z,15.10
2017-12-20T16:13:31.045Z,14.48
2017-12-20T16:15:58.295Z,14.38
2017-12-20T16:18:24.939Z,15.60
2017-12-20T16:20:51.572Z,14.60
2017-12-20T16:23:18.214Z,14.95
2017-12-20T16:25:44.911Z,16.00
2017-12-20T16:28:11.181Z,17.10
2017-12-20T16:30:37.878Z,15.63
2017-12-20T16:33:04.732Z,16.80
2017-12-20T16:35:31.056Z,17.75
2017-12-20T16:37:57.321Z,17.10
2017-12-20T16:40:24.610Z,16.58
2017-12-20T16:42:50.959Z,16.15
2017-12-20T16:45:17.333Z,15.23
2017-12-20T16:47:43.981Z,13.38
2017-12-20T16:50:10.674Z,13.93
2017-12-20T16:52:36.970Z,15.35
2017-12-20T16:55:03.332Z,14.80
2017-12-20T16:57:29.665Z,13.90
2017-12-20T16:59:55.940Z,14.15
2017-12-20T17:02:22.596Z,14.90
2017-12-20T17:04:48.914Z,16.65
2017-12-20T17:07:15.227Z,16.00
2017-12-20T17:09:41.907Z,18.08
2017-12-20T17:12:08.198Z,16.25
2017-12-20T17:14:34.485Z,17.48
2017-12-20T17:17:00.810Z,17.92
2017-12-20T17:19:27.069Z,19.62
2017-12-20T17:21:53.696Z,30.27
2017-12-20T17:24:20.017Z,36.15
2017-12-20T17:26:47.100Z,21.00
2017-12-20T17:29:13.393Z,20.60
2017-12-20T17:31:39.708Z,18.98
2017-12-20T17:34:06.052Z,16.83
2017-12-20T17:36:32.336Z,17.20
2017-12-20T17:38:58.625Z,17.33
2017-12-20T17:41:25.037Z,17.25
2017-12-20T17:43:51.883Z,17.52
2017-12-20T17:46:28.617Z,16.98
2017-12-20T17:48:54.924Z,17.73
2017-12-20T17:51:21.228Z,13.15
2017-12-20T17:53:47.509Z,14.50
2017-12-20T17:56:13.777Z,13.62
2017-12-20T17:58:40.094Z,15.65
2017-12-20T18:01:06.558Z,15.65
2017-12-20T18:03:33.161Z,19.00
2017-12-20T18:05:59.417Z,15.98
2017-12-20T18:08:25.773Z,15.35
2017-12-20T18:10:52.069Z,15.70
2017-12-20T18:13:19.483Z,14.35
2017-12-20T18:15:45.787Z,13.13
2017-12-20T18:18:12.422Z,12.23
2017-12-20T18:20:38.692Z,13.07
2017-12-20T18:23:05.099Z,14.05
2017-12-20T18:25:31.799Z,13.18
2017-12-20T18:27:58.118Z,14.40
2017-12-20T18:30:24.462Z,14.27
2017-12-20T18:32:50.762Z,12.25
2017-12-20T18:35:17.098Z,12.98
2017-12-20T18:37:43.384Z,16.02
2017-12-20T18:40:10.042Z,16.30
2017-12-20T18:42:36.708Z,15.75
2017-12-20T18:45:03.005Z,14.63
2017-12-20T18:47:29.283Z,15.07
2017-12-20T18:49:55.529Z,14.45
2017-12-20T18:52:21.812Z,14.25
2017-12-20T18:54:48.165Z,15.50
2017-12-20T18:57:14.493Z,15.45
2017-12-20T18:59:40.825Z,14.02
2017-12-20T19:02:07.229Z,16.60
2017-12-20T19:04:33.526Z,15.70
2017-12-20T19:07:01.237Z,16.55
2017-12-20T19:09:28.619Z,16.85
2017-12-20T19:11:54.929Z,15.77
2017-12-20T19:14:21.260Z,18.90
2017-12-20T19:16:47.632Z,18.52
2017-12-20T19:19:15.294Z,18.05
2017-12-20T19:21:42.159Z,19.55
2017-12-20T19:24:08.614Z,17.00
2017-12-20T19:26:34.947Z,16.30
2017-12-20T19:29:02.168Z,17.85
2017-12-20T19:31:29.051Z,18.25
2017-12-20T19:33:55.426Z,17.98
2017-12-20T19:36:21.701Z,17.77
2017-12-20T19:38:47.957Z,16.45
2017-12-20T19:41:14.250Z,14.43
2017-12-20T19:43:40.548Z,16.40
2017-12-20T19:46:07.263Z,17.65
2017-12-20T19:48:34.333Z,14.85
2017-12-20T19:51:00.603Z,15.88
2017-12-20T19:53:26.974Z,17.17
2017-12-20T19:55:53.263Z,16.20
2017-12-20T19:58:19.594Z,16.58
2017-12-20T20:00:45.920Z,16.60
2017-12-20T20:03:12.233Z,19.02
2017-12-20T20:05:38.931Z,16.50
2017-12-20T20:08:05.203Z,15.82
2017-12-20T20:10:31.465Z,17.30
2017-12-20T20:12:57.707Z,16.25
2017-12-20T20:15:24.071Z,16.10
2017-12-20T20:17:50.794Z,16.85
2017-12-20T20:20:17.114Z,18.35
2017-12-20T20:22:43.406Z,17.87
2017-12-20T20:25:10.750Z,19.08
2017-12-20T20:27:37.111Z,17.10
2017-12-20T20:30:03.412Z,21.05
2017-12-20T20:32:29.700Z,19.42
2017-12-20T20:34:55.997Z,18.52
2017-12-20T20:37:22.290Z,18.65
2017-12-20T20:39:48.975Z,18.90
2017-12-20T20:42:15.324Z,17.33
2017-12-20T20:44:41.605Z,16.87
2017-12-20T20:47:07.872Z,16.20
2017-12-20T20:49:34.189Z,18.45
2017-12-20T20:52:00.488Z,17.75
2017-12-20T20:54:26.736Z,16.65
2017-12-20T20:56:53.009Z,16.00
2017-12-20T20:59:19.262Z,17.02
2017-12-20T21:01:45.565Z,17.20
2017-12-20T21:04:11.856Z,17.15
2017-12-20T21:06:38.147Z,18.00
2017-12-20T21:09:04.456Z,16.58
2017-12-20T21:11:30.745Z,17.98
2017-12-20T21:13:57.003Z,18.05
2017-12-20T21:16:23.245Z,18.27
2017-12-20T21:18:49.602Z,18.98
2017-12-20T21:21:15.861Z,18.20
2017-12-20T21:23:42.969Z,18.40
2017-12-20T21:26:09.627Z,17.75
2017-12-20T21:28:35.916Z,19.35
2017-12-20T21:31:02.204Z,19.73
2017-12-20T21:33:28.483Z,20.37
2017-12-20T21:35:54.744Z,17.20
2017-12-20T21:38:21.012Z,18.02
2017-12-20T21:40:47.243Z,18.00
2017-12-20T21:43:13.506Z,19.30
2017-12-20T21:45:40.160Z,19.83
2017-12-20T21:48:06.424Z,18.77
2017-12-20T21:50:32.672Z,20.50
2017-12-20T21:52:58.976Z,20.77
2017-12-20T21:55:25.240Z,21.65
2017-12-20T21:57:51.519Z,21.85
2017-12-20T22:00:17.789Z,19.87
2017-12-20T22:02:44.093Z,19.67
2017-12-20T22:05:10.387Z,17.90
2017-12-20T22:07:36.733Z,17.77
2017-12-20T22:10:03.050Z,20.33
2017-12-20T22:12:29.718Z,19.45
2017-12-20T22:14:56.040Z,18.58
2017-12-20T22:17:22.455Z,19.85
2017-12-20T22:19:48.689Z,20.45
2017-12-20T22:22:15.135Z,21.02
2017-12-20T22:24:41.929Z,16.58
2017-12-20T22:27:12.799Z,17.33
2017-12-20T22:29:39.495Z,17.17
2017-12-20T22:32:05.712Z,18.02
2017-12-20T22:34:31.923Z,16.87
2017-12-20T22:36:58.209Z,16.80
2017-12-20T22:39:24.473Z,17.70
2017-12-20T22:41:50.777Z,17.95
2017-12-20T22:44:17.527Z,18.23
2017-12-20T22:46:44.073Z,17.20
2017-12-20T22:49:10.307Z,17.70
2017-12-20T22:51:36.545Z,17.05
2017-12-20T22:54:02.875Z,17.08
2017-12-20T22:56:29.080Z,17.35
2017-12-20T22:58:55.319Z,17.60
2017-12-20T23:01:22.240Z,16.42
2017-12-20T23:03:48.895Z,16.25
2017-12-20T23:06:15.176Z,15.98
2017-12-20T23:08:41.424Z,16.33
2017-12-20T23:11:07.727Z,15.65
2017-12-20T23:13:33.952Z,17.12
2017-12-20T23:16:00.190Z,14.87
2017-12-20T23:18:26.481Z,16.50
2017-12-20T23:20:52.727Z,17.02
2017-12-20T23:23:19.010Z,16.45
2017-12-20T23:25:45.209Z,15.95
2017-12-20T23:28:11.494Z,16.52
2017-12-20T23:30:37.765Z,16.17
2017-12-20T23:33:04.019Z,15.88
2017-12-20T23:35:30.683Z,16.52
2017-12-20T23:37:56.934Z,15.90
2017-12-20T23:40:23.249Z,15.80
2017-12-20T23:42:49.677Z,16.20
2017-12-20T23:45:16.568Z,15.35
2017-12-20T23:47:42.809Z,15.55
2017-12-20T23:50:09.090Z,14.30
2017-12-20T23:52:35.346Z,17.37
2017-12-20T23:55:01.595Z,16.42
2017-12-20T23:57:28.645Z,17.50
2017-12-20T23:59:54.855Z,15.32
